sensor_id;sensor_type;location;lat;lon;timestamp;temperature;humidity
20829;DHT22;10575;50.124;8.582;2023-04-30T00:01:37;12.40;99.90
20829;DHT22;10575;50.124;8.582;2023-04-30T00:04:03;12.40;99.90
20829;DHT22;10575;50.124;8.582;2023-04-30T00:06:28;12.30;99.90
20829;DHT22;10575;50.124;8.582;2023-04-30T00:08:54;12.30;99.90
20829;DHT22;10575;50.124;8.582;2023-04-30T00:11:19;12.30;99.90
20829;DHT22;10575;50.124;8.582;2023-04-30T00:13:45;12.30;99.90
20829;DHT22;10575;50.124;8.582;2023-04-30T00:16:11;12.30;99.90
20829;DHT22;10575;50.124;8.582;2023-04-30T00:18:37;12.20;99.90
20829;DHT22;10575;50.124;8.582;2023-04-30T00:21:03;12.20;99.90
20829;DHT22;10575;50.124;8.582;2023-04-30T00:23:29;12.20;99.90
20829;DHT22;10575;50.124;8.582;2023-04-30T00:25:54;12.20;99.90
20829;DHT22;10575;50.124;8.582;2023-04-30T00:28:20;12.20;99.90
20829;DHT22;10575;50.124;8.582;2023-04-30T00:30:46;12.20;99.90
20829;DHT22;10575;50.124;8.582;2023-04-30T00:33:11;12.20;99.90
20829;DHT22;10575;50.124;8.582;2023-04-30T00:35:37;12.20;99.90
20829;DHT22;10575;50.124;8.582;2023-04-30T00:38:02;12.20;99.90
20829;DHT22;10575;50.124;8.582;2023-04-30T00:40:28;12.20;99.90
20829;DHT22;10575;50.124;8.582;2023-04-30T00:42:54;12.20;99.90
20829;DHT22;10575;50.124;8.582;2023-04-30T00:45:20;12.20;99.90
20829;DHT22;10575;50.124;8.582;2023-04-30T00:47:46;12.10;99.90
20829;DHT22;10575;50.124;8.582;2023-04-30T00:50:13;12.10;99.90
20829;DHT22;10575;50.124;8.582;2023-04-30T00:52:41;12.10;99.90
20829;DHT22;10575;50.124;8.582;2023-04-30T00:55:07;12.00;99.90
20829;DHT22;10575;50.124;8.582;2023-04-30T00:57:33;11.90;99.90
20829;DHT22;10575;50.124;8.582;2023-04-30T01:00:01;11.90;99.90
20829;DHT22;10575;50.124;8.582;2023-04-30T01:02:26;11.80;99.90
20829;DHT22;10575;50.124;8.582;2023-04-30T01:04:52;11.70;99.90
20829;DHT22;10575;50.124;8.582;2023-04-30T01:07:18;11.60;99.90
20829;DHT22;10575;50.124;8.582;2023-04-30T01:09:43;11.60;99.90
20829;DHT22;10575;50.124;8.582;2023-04-30T01:17:40;11.40;99.90
20829;DHT22;10575;50.124;8.582;2023-04-30T01:20:09;11.30;99.90
20829;DHT22;10575;50.124;8.582;2023-04-30T01:22:45;11.30;99.90
20829;DHT22;10575;50.124;8.582;2023-04-30T01:28:02;11.20;99.90
20829;DHT22;10575;50.124;8.582;2023-04-30T01:30:33;11.10;99.90
20829;DHT22;10575;50.124;8.582;2023-04-30T01:32:59;11.10;99.90
20829;DHT22;10575;50.124;8.582;2023-04-30T01:35:34;11.10;99.90
20829;DHT22;10575;50.124;8.582;2023-04-30T01:40:59;11.00;99.90
20829;DHT22;10575;50.124;8.582;2023-04-30T01:46:25;10.90;99.90
20829;DHT22;10575;50.124;8.582;2023-04-30T01:49:01;10.90;99.90
20829;DHT22;10575;50.124;8.582;2023-04-30T01:51:40;10.90;99.90
20829;DHT22;10575;50.124;8.582;2023-04-30T01:54:25;11.00;99.90
20829;DHT22;10575;50.124;8.582;2023-04-30T01:57:02;11.00;99.90
20829;DHT22;10575;50.124;8.582;2023-04-30T01:59:34;11.10;99.90
20829;DHT22;10575;50.124;8.582;2023-04-30T02:02:02;11.10;99.90
20829;DHT22;10575;50.124;8.582;2023-04-30T02:04:27;11.10;99.90
20829;DHT22;10575;50.124;8.582;2023-04-30T02:06:53;11.10;99.90
20829;DHT22;10575;50.124;8.582;2023-04-30T02:09:18;11.10;99.90
20829;DHT22;10575;50.124;8.582;2023-04-30T02:11:44;11.10;99.90
20829;DHT22;10575;50.124;8.582;2023-04-30T02:14:09;11.10;99.90
20829;DHT22;10575;50.124;8.582;2023-04-30T02:16:35;11.00;99.90
20829;DHT22;10575;50.124;8.582;2023-04-30T02:19:01;10.80;99.90
20829;DHT22;10575;50.124;8.582;2023-04-30T02:21:26;10.70;99.90
20829;DHT22;10575;50.124;8.582;2023-04-30T02:23:52;10.60;99.90
20829;DHT22;10575;50.124;8.582;2023-04-30T02:26:18;10.50;99.90
20829;DHT22;10575;50.124;8.582;2023-04-30T02:28:44;10.40;99.90
20829;DHT22;10575;50.124;8.582;2023-04-30T02:31:10;10.40;99.90
20829;DHT22;10575;50.124;8.582;2023-04-30T02:33:35;10.30;99.90
20829;DHT22;10575;50.124;8.582;2023-04-30T02:36:01;10.30;99.90
20829;DHT22;10575;50.124;8.582;2023-04-30T02:38:26;10.20;99.90
20829;DHT22;10575;50.124;8.582;2023-04-30T02:40:52;10.20;99.90
20829;DHT22;10575;50.124;8.582;2023-04-30T02:43:17;10.10;99.90
20829;DHT22;10575;50.124;8.582;2023-04-30T02:45:43;10.10;99.90
20829;DHT22;10575;50.124;8.582;2023-04-30T02:48:08;10.10;99.90
20829;DHT22;10575;50.124;8.582;2023-04-30T02:50:34;10.10;99.90
20829;DHT22;10575;50.124;8.582;2023-04-30T02:52:59;10.10;99.90
20829;DHT22;10575;50.124;8.582;2023-04-30T02:55:25;10.20;99.90
20829;DHT22;10575;50.124;8.582;2023-04-30T02:57:50;10.20;99.90
20829;DHT22;10575;50.124;8.582;2023-04-30T03:00:16;10.40;99.90
20829;DHT22;10575;50.124;8.582;2023-04-30T03:02:42;10.50;99.90
20829;DHT22;10575;50.124;8.582;2023-04-30T03:05:08;10.60;99.90
20829;DHT22;10575;50.124;8.582;2023-04-30T03:07:33;10.60;99.90
20829;DHT22;10575;50.124;8.582;2023-04-30T03:09:59;10.50;99.90
20829;DHT22;10575;50.124;8.582;2023-04-30T03:12:24;10.50;99.90
20829;DHT22;10575;50.124;8.582;2023-04-30T03:14:50;10.50;99.90
20829;DHT22;10575;50.124;8.582;2023-04-30T03:17:16;10.50;99.90
20829;DHT22;10575;50.124;8.582;2023-04-30T03:19:42;10.60;99.90
20829;DHT22;10575;50.124;8.582;2023-04-30T03:22:07;10.70;99.90
20829;DHT22;10575;50.124;8.582;2023-04-30T03:24:33;10.80;99.90
20829;DHT22;10575;50.124;8.582;2023-04-30T03:26:58;10.90;99.90
20829;DHT22;10575;50.124;8.582;2023-04-30T03:29:24;10.90;99.90
20829;DHT22;10575;50.124;8.582;2023-04-30T03:31:49;10.80;99.90
20829;DHT22;10575;50.124;8.582;2023-04-30T03:34:15;10.70;99.90
20829;DHT22;10575;50.124;8.582;2023-04-30T03:36:41;10.70;99.90
20829;DHT22;10575;50.124;8.582;2023-04-30T03:39:06;10.70;99.90
20829;DHT22;10575;50.124;8.582;2023-04-30T03:41:34;10.70;99.90
20829;DHT22;10575;50.124;8.582;2023-04-30T03:43:59;10.80;99.90
20829;DHT22;10575;50.124;8.582;2023-04-30T03:46:25;10.80;99.90
20829;DHT22;10575;50.124;8.582;2023-04-30T03:48:50;10.80;99.90
20829;DHT22;10575;50.124;8.582;2023-04-30T03:51:18;10.80;99.90
20829;DHT22;10575;50.124;8.582;2023-04-30T03:53:44;10.80;99.90
20829;DHT22;10575;50.124;8.582;2023-04-30T03:56:11;10.90;99.90
20829;DHT22;10575;50.124;8.582;2023-04-30T03:58:37;10.90;99.90
20829;DHT22;10575;50.124;8.582;2023-04-30T04:01:03;10.80;99.90
20829;DHT22;10575;50.124;8.582;2023-04-30T04:03:29;10.90;99.90
20829;DHT22;10575;50.124;8.582;2023-04-30T04:05:54;10.80;99.90
20829;DHT22;10575;50.124;8.582;2023-04-30T04:08:20;10.90;99.90
20829;DHT22;10575;50.124;8.582;2023-04-30T04:10:46;10.90;99.90
20829;DHT22;10575;50.124;8.582;2023-04-30T04:13:11;11.00;99.90
20829;DHT22;10575;50.124;8.582;2023-04-30T04:15:37;10.90;99.90
20829;DHT22;10575;50.124;8.582;2023-04-30T04:18:02;10.80;99.90
20829;DHT22;10575;50.124;8.582;2023-04-30T04:20:28;10.80;99.90
20829;DHT22;10575;50.124;8.582;2023-04-30T04:22:54;10.90;99.90
20829;DHT22;10575;50.124;8.582;2023-04-30T04:25:21;10.80;99.90
20829;DHT22;10575;50.124;8.582;2023-04-30T04:27:49;10.90;99.90
20829;DHT22;10575;50.124;8.582;2023-04-30T04:30:15;10.90;99.90
20829;DHT22;10575;50.124;8.582;2023-04-30T04:32:41;10.80;99.90
20829;DHT22;10575;50.124;8.582;2023-04-30T04:35:13;10.70;99.90
20829;DHT22;10575;50.124;8.582;2023-04-30T04:37:39;10.60;99.90
20829;DHT22;10575;50.124;8.582;2023-04-30T04:40:05;10.60;99.90
20829;DHT22;10575;50.124;8.582;2023-04-30T04:42:31;10.60;99.90
20829;DHT22;10575;50.124;8.582;2023-04-30T04:44:57;10.50;99.90
20829;DHT22;10575;50.124;8.582;2023-04-30T04:47:22;10.50;99.90
20829;DHT22;10575;50.124;8.582;2023-04-30T04:49:48;10.50;99.90
20829;DHT22;10575;50.124;8.582;2023-04-30T04:52:13;10.60;99.90
20829;DHT22;10575;50.124;8.582;2023-04-30T04:54:39;10.60;99.90
20829;DHT22;10575;50.124;8.582;2023-04-30T04:57:04;10.70;99.90
20829;DHT22;10575;50.124;8.582;2023-04-30T04:59:30;10.80;99.90
20829;DHT22;10575;50.124;8.582;2023-04-30T05:01:55;10.80;99.90
20829;DHT22;10575;50.124;8.582;2023-04-30T05:04:21;10.80;99.90
20829;DHT22;10575;50.124;8.582;2023-04-30T05:06:46;10.90;99.90
20829;DHT22;10575;50.124;8.582;2023-04-30T05:09:12;11.00;99.90
20829;DHT22;10575;50.124;8.582;2023-04-30T05:11:37;11.00;99.90
20829;DHT22;10575;50.124;8.582;2023-04-30T05:14:03;11.00;99.90
20829;DHT22;10575;50.124;8.582;2023-04-30T05:16:29;10.90;99.90
20829;DHT22;10575;50.124;8.582;2023-04-30T05:18:54;10.90;99.90
20829;DHT22;10575;50.124;8.582;2023-04-30T05:21:20;10.80;99.90
20829;DHT22;10575;50.124;8.582;2023-04-30T05:23:46;10.90;99.90
20829;DHT22;10575;50.124;8.582;2023-04-30T05:26:11;11.00;99.90
20829;DHT22;10575;50.124;8.582;2023-04-30T05:28:37;11.10;99.90
20829;DHT22;10575;50.124;8.582;2023-04-30T05:31:02;11.20;99.90
20829;DHT22;10575;50.124;8.582;2023-04-30T05:33:28;11.30;99.90
20829;DHT22;10575;50.124;8.582;2023-04-30T05:35:53;11.30;99.90
20829;DHT22;10575;50.124;8.582;2023-04-30T05:38:19;11.20;99.90
20829;DHT22;10575;50.124;8.582;2023-04-30T05:40:44;11.20;99.90
20829;DHT22;10575;50.124;8.582;2023-04-30T05:43:10;11.40;99.90
20829;DHT22;10575;50.124;8.582;2023-04-30T05:45:36;11.90;99.90
20829;DHT22;10575;50.124;8.582;2023-04-30T05:48:01;12.10;99.90
20829;DHT22;10575;50.124;8.582;2023-04-30T05:50:27;12.20;99.90
20829;DHT22;10575;50.124;8.582;2023-04-30T05:52:52;12.50;99.90
20829;DHT22;10575;50.124;8.582;2023-04-30T05:55:18;12.90;99.90
20829;DHT22;10575;50.124;8.582;2023-04-30T05:57:43;13.40;99.90
20829;DHT22;10575;50.124;8.582;2023-04-30T06:00:09;13.90;99.90
20829;DHT22;10575;50.124;8.582;2023-04-30T06:02:35;14.20;99.90
20829;DHT22;10575;50.124;8.582;2023-04-30T06:05:00;14.30;99.90
20829;DHT22;10575;50.124;8.582;2023-04-30T06:07:27;14.60;99.90
20829;DHT22;10575;50.124;8.582;2023-04-30T06:09:53;14.90;99.90
20829;DHT22;10575;50.124;8.582;2023-04-30T06:12:18;15.20;99.90
20829;DHT22;10575;50.124;8.582;2023-04-30T06:14:43;15.70;99.90
20829;DHT22;10575;50.124;8.582;2023-04-30T06:17:11;16.80;99.90
20829;DHT22;10575;50.124;8.582;2023-04-30T06:19:36;17.50;99.90
20829;DHT22;10575;50.124;8.582;2023-04-30T06:22:03;19.50;99.90
20829;DHT22;10575;50.124;8.582;2023-04-30T06:24:29;21.00;99.90
20829;DHT22;10575;50.124;8.582;2023-04-30T06:26:55;22.20;99.90
20829;DHT22;10575;50.124;8.582;2023-04-30T06:29:20;22.50;99.90
20829;DHT22;10575;50.124;8.582;2023-04-30T06:31:51;22.10;99.90
20829;DHT22;10575;50.124;8.582;2023-04-30T06:34:18;20.40;99.90
20829;DHT22;10575;50.124;8.582;2023-04-30T06:36:43;19.20;99.90
20829;DHT22;10575;50.124;8.582;2023-04-30T06:39:09;18.50;99.90
20829;DHT22;10575;50.124;8.582;2023-04-30T06:41:34;18.00;99.90
20829;DHT22;10575;50.124;8.582;2023-04-30T06:44:00;17.80;99.90
20829;DHT22;10575;50.124;8.582;2023-04-30T06:46:25;17.80;99.90
20829;DHT22;10575;50.124;8.582;2023-04-30T06:48:51;18.80;99.90
20829;DHT22;10575;50.124;8.582;2023-04-30T06:51:16;20.50;99.90
20829;DHT22;10575;50.124;8.582;2023-04-30T06:53:42;21.90;99.90
20829;DHT22;10575;50.124;8.582;2023-04-30T06:56:07;23.70;99.70
20829;DHT22;10575;50.124;8.582;2023-04-30T06:58:33;24.10;94.30
20829;DHT22;10575;50.124;8.582;2023-04-30T07:00:58;24.30;94.50
20829;DHT22;10575;50.124;8.582;2023-04-30T07:03:24;24.80;92.60
20829;DHT22;10575;50.124;8.582;2023-04-30T07:05:50;23.90;91.20
20829;DHT22;10575;50.124;8.582;2023-04-30T07:08:16;23.00;93.30
20829;DHT22;10575;50.124;8.582;2023-04-30T07:10:41;22.20;95.50
20829;DHT22;10575;50.124;8.582;2023-04-30T07:13:07;21.00;95.10
20829;DHT22;10575;50.124;8.582;2023-04-30T07:15:33;21.00;96.00
20829;DHT22;10575;50.124;8.582;2023-04-30T07:17:58;21.80;95.30
20829;DHT22;10575;50.124;8.582;2023-04-30T07:20:24;22.30;94.50
20829;DHT22;10575;50.124;8.582;2023-04-30T07:22:49;23.20;93.30
20829;DHT22;10575;50.124;8.582;2023-04-30T07:25:15;27.00;89.90
20829;DHT22;10575;50.124;8.582;2023-04-30T07:27:41;29.10;75.00
20829;DHT22;10575;50.124;8.582;2023-04-30T07:30:07;31.00;62.50
20829;DHT22;10575;50.124;8.582;2023-04-30T07:32:35;30.50;60.20
20829;DHT22;10575;50.124;8.582;2023-04-30T07:35:01;30.60;56.30
20829;DHT22;10575;50.124;8.582;2023-04-30T07:37:27;31.50;55.80
20829;DHT22;10575;50.124;8.582;2023-04-30T07:39:53;33.00;53.00
20829;DHT22;10575;50.124;8.582;2023-04-30T07:42:18;35.60;45.50
20829;DHT22;10575;50.124;8.582;2023-04-30T07:44:44;38.50;39.90
20829;DHT22;10575;50.124;8.582;2023-04-30T07:47:10;36.30;41.10
20829;DHT22;10575;50.124;8.582;2023-04-30T07:49:36;35.90;39.10
20829;DHT22;10575;50.124;8.582;2023-04-30T07:52:01;35.30;41.10
20829;DHT22;10575;50.124;8.582;2023-04-30T07:54:27;37.80;37.50
20829;DHT22;10575;50.124;8.582;2023-04-30T07:56:53;36.20;37.30
20829;DHT22;10575;50.124;8.582;2023-04-30T07:59:18;37.90;35.40
20829;DHT22;10575;50.124;8.582;2023-04-30T08:01:46;39.40;34.50
20829;DHT22;10575;50.124;8.582;2023-04-30T08:04:11;42.40;30.30
20829;DHT22;10575;50.124;8.582;2023-04-30T08:06:37;40.90;30.00
20829;DHT22;10575;50.124;8.582;2023-04-30T08:09:02;38.40;32.10
20829;DHT22;10575;50.124;8.582;2023-04-30T08:11:28;37.20;32.70
20829;DHT22;10575;50.124;8.582;2023-04-30T08:13:54;36.20;34.00
20829;DHT22;10575;50.124;8.582;2023-04-30T08:16:19;35.70;34.60
20829;DHT22;10575;50.124;8.582;2023-04-30T08:18:45;37.30;33.50
20829;DHT22;10575;50.124;8.582;2023-04-30T08:21:14;36.80;33.50
20829;DHT22;10575;50.124;8.582;2023-04-30T08:23:40;35.70;34.90
20829;DHT22;10575;50.124;8.582;2023-04-30T08:26:06;35.10;34.80
20829;DHT22;10575;50.124;8.582;2023-04-30T08:28:33;36.00;35.10
20829;DHT22;10575;50.124;8.582;2023-04-30T08:30:58;36.00;35.10
20829;DHT22;10575;50.124;8.582;2023-04-30T08:33:24;36.00;35.20
20829;DHT22;10575;50.124;8.582;2023-04-30T08:35:49;37.80;32.80
20829;DHT22;10575;50.124;8.582;2023-04-30T08:38:15;39.10;30.90
20829;DHT22;10575;50.124;8.582;2023-04-30T08:40:41;37.20;31.70
20829;DHT22;10575;50.124;8.582;2023-04-30T08:43:11;36.50;33.40
20829;DHT22;10575;50.124;8.582;2023-04-30T08:45:37;39.30;32.10
20829;DHT22;10575;50.124;8.582;2023-04-30T08:48:04;39.40;30.60
20829;DHT22;10575;50.124;8.582;2023-04-30T08:50:30;38.40;30.20
20829;DHT22;10575;50.124;8.582;2023-04-30T08:52:59;38.00;31.50
20829;DHT22;10575;50.124;8.582;2023-04-30T08:55:26;36.50;32.70
20829;DHT22;10575;50.124;8.582;2023-04-30T08:57:52;36.30;32.20
20829;DHT22;10575;50.124;8.582;2023-04-30T09:00:17;36.90;32.40
20829;DHT22;10575;50.124;8.582;2023-04-30T09:02:43;38.20;32.00
20829;DHT22;10575;50.124;8.582;2023-04-30T09:05:11;38.00;31.40
20829;DHT22;10575;50.124;8.582;2023-04-30T09:07:40;38.20;30.50
20829;DHT22;10575;50.124;8.582;2023-04-30T09:12:40;36.20;32.90
20829;DHT22;10575;50.124;8.582;2023-04-30T09:15:07;36.10;34.20
20829;DHT22;10575;50.124;8.582;2023-04-30T09:17:33;37.40;31.50
20829;DHT22;10575;50.124;8.582;2023-04-30T09:20:10;36.00;32.50
20829;DHT22;10575;50.124;8.582;2023-04-30T09:22:37;35.20;34.20
20829;DHT22;10575;50.124;8.582;2023-04-30T09:25:03;33.60;35.70
20829;DHT22;10575;50.124;8.582;2023-04-30T09:27:29;30.90;38.40
20829;DHT22;10575;50.124;8.582;2023-04-30T09:29:55;29.90;40.70
20829;DHT22;10575;50.124;8.582;2023-04-30T09:32:21;27.90;42.00
20829;DHT22;10575;50.124;8.582;2023-04-30T09:34:46;26.40;45.50
20829;DHT22;10575;50.124;8.582;2023-04-30T09:37:12;24.80;49.60
20829;DHT22;10575;50.124;8.582;2023-04-30T09:39:54;23.10;52.60
20829;DHT22;10575;50.124;8.582;2023-04-30T09:42:20;22.10;53.50
20829;DHT22;10575;50.124;8.582;2023-04-30T09:44:47;21.50;55.00
20829;DHT22;10575;50.124;8.582;2023-04-30T09:47:17;20.90;56.90
20829;DHT22;10575;50.124;8.582;2023-04-30T09:49:47;20.60;56.30
20829;DHT22;10575;50.124;8.582;2023-04-30T09:52:14;20.20;58.60
20829;DHT22;10575;50.124;8.582;2023-04-30T09:54:45;20.60;60.20
20829;DHT22;10575;50.124;8.582;2023-04-30T09:57:12;20.40;58.40
20829;DHT22;10575;50.124;8.582;2023-04-30T09:59:44;20.10;58.90
20829;DHT22;10575;50.124;8.582;2023-04-30T10:02:13;20.10;59.50
20829;DHT22;10575;50.124;8.582;2023-04-30T10:04:42;20.00;58.50
20829;DHT22;10575;50.124;8.582;2023-04-30T10:07:18;20.10;63.50
20829;DHT22;10575;50.124;8.582;2023-04-30T10:09:50;20.10;56.80
20829;DHT22;10575;50.124;8.582;2023-04-30T10:12:21;19.70;58.40
20829;DHT22;10575;50.124;8.582;2023-04-30T10:14:55;19.70;59.80
20829;DHT22;10575;50.124;8.582;2023-04-30T10:17:24;19.80;62.30
20829;DHT22;10575;50.124;8.582;2023-04-30T10:19:51;20.00;62.50
20829;DHT22;10575;50.124;8.582;2023-04-30T10:22:19;20.10;63.00
20829;DHT22;10575;50.124;8.582;2023-04-30T10:24:47;20.50;65.80
20829;DHT22;10575;50.124;8.582;2023-04-30T10:27:12;20.40;60.40
20829;DHT22;10575;50.124;8.582;2023-04-30T10:29:38;20.10;62.90
20829;DHT22;10575;50.124;8.582;2023-04-30T10:32:05;20.00;64.20
20829;DHT22;10575;50.124;8.582;2023-04-30T10:37:46;19.80;60.00
20829;DHT22;10575;50.124;8.582;2023-04-30T10:40:14;19.60;62.50
20829;DHT22;10575;50.124;8.582;2023-04-30T10:42:48;19.80;63.00
20829;DHT22;10575;50.124;8.582;2023-04-30T10:45:17;19.50;61.60
20829;DHT22;10575;50.124;8.582;2023-04-30T10:47:44;19.40;63.60
20829;DHT22;10575;50.124;8.582;2023-04-30T10:50:10;19.80;64.50
20829;DHT22;10575;50.124;8.582;2023-04-30T10:52:37;19.80;65.60
20829;DHT22;10575;50.124;8.582;2023-04-30T10:55:09;19.80;63.90
20829;DHT22;10575;50.124;8.582;2023-04-30T10:57:42;19.90;65.20
20829;DHT22;10575;50.124;8.582;2023-04-30T11:02:44;19.60;64.90
20829;DHT22;10575;50.124;8.582;2023-04-30T11:05:15;19.30;67.10
20829;DHT22;10575;50.124;8.582;2023-04-30T11:07:50;19.40;69.40
20829;DHT22;10575;50.124;8.582;2023-04-30T11:10:20;19.60;66.70
20829;DHT22;10575;50.124;8.582;2023-04-30T11:12:50;19.50;66.60
20829;DHT22;10575;50.124;8.582;2023-04-30T11:15:21;19.30;63.70
20829;DHT22;10575;50.124;8.582;2023-04-30T11:17:49;19.50;68.10
20829;DHT22;10575;50.124;8.582;2023-04-30T11:20:19;19.40;66.30
20829;DHT22;10575;50.124;8.582;2023-04-30T11:22:45;19.30;67.00
20829;DHT22;10575;50.124;8.582;2023-04-30T11:25:12;19.30;66.30
20829;DHT22;10575;50.124;8.582;2023-04-30T11:27:41;19.30;66.20
20829;DHT22;10575;50.124;8.582;2023-04-30T11:30:17;19.30;65.00
20829;DHT22;10575;50.124;8.582;2023-04-30T11:32:44;19.30;67.00
20829;DHT22;10575;50.124;8.582;2023-04-30T11:35:11;19.50;66.90
20829;DHT22;10575;50.124;8.582;2023-04-30T11:37:39;19.70;65.00
20829;DHT22;10575;50.124;8.582;2023-04-30T11:40:07;19.50;63.70
20829;DHT22;10575;50.124;8.582;2023-04-30T11:42:33;19.30;63.30
20829;DHT22;10575;50.124;8.582;2023-04-30T11:45:15;19.20;65.30
20829;DHT22;10575;50.124;8.582;2023-04-30T11:47:42;19.20;66.50
20829;DHT22;10575;50.124;8.582;2023-04-30T11:50:12;19.20;66.30
20829;DHT22;10575;50.124;8.582;2023-04-30T11:52:39;19.60;69.90
20829;DHT22;10575;50.124;8.582;2023-04-30T11:55:13;19.70;62.40
20829;DHT22;10575;50.124;8.582;2023-04-30T11:57:41;19.60;64.10
20829;DHT22;10575;50.124;8.582;2023-04-30T12:00:10;19.60;65.30
20829;DHT22;10575;50.124;8.582;2023-04-30T12:02:35;19.70;66.20
20829;DHT22;10575;50.124;8.582;2023-04-30T12:05:01;19.70;64.00
20829;DHT22;10575;50.124;8.582;2023-04-30T12:07:27;19.50;60.80
20829;DHT22;10575;50.124;8.582;2023-04-30T12:09:53;19.70;62.10
20829;DHT22;10575;50.124;8.582;2023-04-30T12:12:29;19.80;58.80
20829;DHT22;10575;50.124;8.582;2023-04-30T12:14:54;19.60;59.80
20829;DHT22;10575;50.124;8.582;2023-04-30T12:17:33;19.50;60.80
20829;DHT22;10575;50.124;8.582;2023-04-30T12:19:59;19.40;60.20
20829;DHT22;10575;50.124;8.582;2023-04-30T12:22:25;19.50;62.40
20829;DHT22;10575;50.124;8.582;2023-04-30T12:24:51;19.50;60.00
20829;DHT22;10575;50.124;8.582;2023-04-30T12:27:17;19.60;59.70
20829;DHT22;10575;50.124;8.582;2023-04-30T12:29:45;19.50;62.10
20829;DHT22;10575;50.124;8.582;2023-04-30T12:32:11;19.70;62.30
20829;DHT22;10575;50.124;8.582;2023-04-30T12:34:41;19.90;61.30
20829;DHT22;10575;50.124;8.582;2023-04-30T12:37:06;19.90;59.90
20829;DHT22;10575;50.124;8.582;2023-04-30T12:39:33;19.90;58.80
20829;DHT22;10575;50.124;8.582;2023-04-30T12:41:59;19.80;59.80
20829;DHT22;10575;50.124;8.582;2023-04-30T12:44:27;19.90;60.50
20829;DHT22;10575;50.124;8.582;2023-04-30T12:46:55;20.00;59.60
20829;DHT22;10575;50.124;8.582;2023-04-30T12:49:26;19.80;59.90
20829;DHT22;10575;50.124;8.582;2023-04-30T12:52:08;19.90;61.50
20829;DHT22;10575;50.124;8.582;2023-04-30T12:54:35;19.90;61.90
20829;DHT22;10575;50.124;8.582;2023-04-30T12:57:11;20.10;61.10
20829;DHT22;10575;50.124;8.582;2023-04-30T13:02:20;20.20;62.80
20829;DHT22;10575;50.124;8.582;2023-04-30T13:04:46;20.20;60.40
20829;DHT22;10575;50.124;8.582;2023-04-30T13:07:13;20.10;59.50
20829;DHT22;10575;50.124;8.582;2023-04-30T13:09:39;20.00;60.80
20829;DHT22;10575;50.124;8.582;2023-04-30T13:12:05;19.90;62.30
20829;DHT22;10575;50.124;8.582;2023-04-30T13:14:31;19.80;62.00
20829;DHT22;10575;50.124;8.582;2023-04-30T13:16:57;19.80;60.60
20829;DHT22;10575;50.124;8.582;2023-04-30T13:19:23;19.90;62.20
20829;DHT22;10575;50.124;8.582;2023-04-30T13:21:49;20.00;61.80
20829;DHT22;10575;50.124;8.582;2023-04-30T13:24:15;20.20;60.00
20829;DHT22;10575;50.124;8.582;2023-04-30T13:26:43;20.20;60.90
20829;DHT22;10575;50.124;8.582;2023-04-30T13:29:08;20.40;60.40
20829;DHT22;10575;50.124;8.582;2023-04-30T13:31:34;20.70;60.70
20829;DHT22;10575;50.124;8.582;2023-04-30T13:33:59;20.80;59.30
20829;DHT22;10575;50.124;8.582;2023-04-30T13:36:25;20.50;59.90
20829;DHT22;10575;50.124;8.582;2023-04-30T13:38:54;20.40;60.80
20829;DHT22;10575;50.124;8.582;2023-04-30T13:41:21;20.40;61.30
20829;DHT22;10575;50.124;8.582;2023-04-30T13:43:48;20.50;60.60
20829;DHT22;10575;50.124;8.582;2023-04-30T13:46:13;20.50;61.00
20829;DHT22;10575;50.124;8.582;2023-04-30T13:48:46;20.60;62.90
20829;DHT22;10575;50.124;8.582;2023-04-30T13:51:14;20.50;61.70
20829;DHT22;10575;50.124;8.582;2023-04-30T13:53:39;20.60;63.00
20829;DHT22;10575;50.124;8.582;2023-04-30T13:56:05;20.60;60.70
20829;DHT22;10575;50.124;8.582;2023-04-30T13:58:31;20.60;61.50
20829;DHT22;10575;50.124;8.582;2023-04-30T14:00:57;20.70;60.70
20829;DHT22;10575;50.124;8.582;2023-04-30T14:03:22;20.70;60.60
20829;DHT22;10575;50.124;8.582;2023-04-30T14:05:48;20.50;59.30
20829;DHT22;10575;50.124;8.582;2023-04-30T14:08:15;20.30;60.90
20829;DHT22;10575;50.124;8.582;2023-04-30T14:10:40;20.00;62.00
20829;DHT22;10575;50.124;8.582;2023-04-30T14:13:06;20.00;62.80
20829;DHT22;10575;50.124;8.582;2023-04-30T14:15:32;20.00;63.10
20829;DHT22;10575;50.124;8.582;2023-04-30T14:17:57;19.90;62.10
20829;DHT22;10575;50.124;8.582;2023-04-30T14:20:24;20.00;64.50
20829;DHT22;10575;50.124;8.582;2023-04-30T14:22:50;20.10;63.70
20829;DHT22;10575;50.124;8.582;2023-04-30T14:25:15;20.00;61.90
20829;DHT22;10575;50.124;8.582;2023-04-30T14:27:41;20.00;63.40
20829;DHT22;10575;50.124;8.582;2023-04-30T14:30:07;20.20;61.90
20829;DHT22;10575;50.124;8.582;2023-04-30T14:32:33;20.30;62.50
20829;DHT22;10575;50.124;8.582;2023-04-30T14:34:59;20.40;62.10
20829;DHT22;10575;50.124;8.582;2023-04-30T14:37:24;20.60;61.20
20829;DHT22;10575;50.124;8.582;2023-04-30T14:39:50;20.80;60.50
20829;DHT22;10575;50.124;8.582;2023-04-30T14:42:15;20.70;60.00
20829;DHT22;10575;50.124;8.582;2023-04-30T14:44:41;20.90;60.60
20829;DHT22;10575;50.124;8.582;2023-04-30T14:47:06;20.90;61.40
20829;DHT22;10575;50.124;8.582;2023-04-30T14:49:32;20.80;59.90
20829;DHT22;10575;50.124;8.582;2023-04-30T14:51:58;20.60;61.20
20829;DHT22;10575;50.124;8.582;2023-04-30T14:54:24;20.50;61.80
20829;DHT22;10575;50.124;8.582;2023-04-30T14:56:49;20.20;63.50
20829;DHT22;10575;50.124;8.582;2023-04-30T14:59:15;20.00;62.10
20829;DHT22;10575;50.124;8.582;2023-04-30T15:01:41;19.90;61.70
20829;DHT22;10575;50.124;8.582;2023-04-30T15:04:06;19.90;62.30
20829;DHT22;10575;50.124;8.582;2023-04-30T15:06:32;20.20;62.40
20829;DHT22;10575;50.124;8.582;2023-04-30T15:08:58;20.40;62.60
20829;DHT22;10575;50.124;8.582;2023-04-30T15:11:24;20.50;62.00
20829;DHT22;10575;50.124;8.582;2023-04-30T15:13:50;20.60;62.30
20829;DHT22;10575;50.124;8.582;2023-04-30T15:16:15;20.90;61.20
20829;DHT22;10575;50.124;8.582;2023-04-30T15:18:42;20.90;60.60
20829;DHT22;10575;50.124;8.582;2023-04-30T15:21:08;20.90;60.10
20829;DHT22;10575;50.124;8.582;2023-04-30T15:23:33;20.70;59.90
20829;DHT22;10575;50.124;8.582;2023-04-30T15:26:00;20.60;61.50
20829;DHT22;10575;50.124;8.582;2023-04-30T15:28:25;20.60;62.10
20829;DHT22;10575;50.124;8.582;2023-04-30T15:30:51;20.60;61.40
20829;DHT22;10575;50.124;8.582;2023-04-30T15:33:17;20.50;61.20
20829;DHT22;10575;50.124;8.582;2023-04-30T15:35:48;20.50;61.90
20829;DHT22;10575;50.124;8.582;2023-04-30T15:38:14;20.40;62.20
20829;DHT22;10575;50.124;8.582;2023-04-30T15:40:40;20.30;61.70
20829;DHT22;10575;50.124;8.582;2023-04-30T15:43:05;20.20;61.90
20829;DHT22;10575;50.124;8.582;2023-04-30T15:45:32;20.10;61.50
20829;DHT22;10575;50.124;8.582;2023-04-30T15:47:58;20.10;62.40
20829;DHT22;10575;50.124;8.582;2023-04-30T15:50:26;20.10;63.30
20829;DHT22;10575;50.124;8.582;2023-04-30T15:52:51;19.90;62.30